Hovedside
METAR-TAF:

METAR-TAF

Lufthavner :

Sandnessjøen lufthavn. Stokka

Sandnessjøen, Norge

breddegrad: 65-58N, lengdegrad: 012-28E, høyde over havet: 1 m

Gjeldene værobservasjon

Denne rapporten ble laget for 17 minutter siden, klokken 17:20 UTC
Vind 11 kt fra Nord-nordøst
Temperatur 4°C
Luftfuktighet 93%
Trykk 1004 hPa
Sikt 10 km eller mer
Spredte skyer i en høyde av 1200 ft
Spredte skyer i en høyde av 2500 ft
Brutte skyer i en høyde av 4000 ft
regn

METAR: ENST 181720Z 03011KT 9999 RA SCT012 SCT025 BKN040 04/03 Q1004 RMK WIND 300FT 04012KT

Tid: 19:37 (17:37 UTC)


TAF: fraværende

Værobservasjoner og værvarsel for over 4000 flyplasser (METAR- og TAF-rapporter).

Tilgjengelige stasjoner er representert av de røde og gule prikkene på kartet.

Hold musepekeren over prikken for å se navnet på stasjonen.

Klikk så for å se værobservasjoner og -varsler.

For å forandre kartet kan du klikke på den grønne knappen med svart kryss for å zoome inn, på den grønne knappen med strek for å zoome ut, eller på de grønne pilene for å se tilstøtende kart.


METAR-TAF: